createdAt,value
2022-10-04T00:04:11.074Z,0.00
2022-10-04T00:09:29.022Z,0.00
2022-10-04T00:14:21.966Z,0.00
2022-10-04T00:19:21.888Z,0.00
2022-10-04T00:24:21.809Z,0.00
2022-10-04T00:29:21.735Z,0.00
2022-10-04T00:34:21.669Z,0.00
2022-10-04T00:39:21.585Z,0.00
2022-10-04T00:44:21.560Z,0.00
2022-10-04T00:49:21.475Z,0.00
2022-10-04T00:54:21.402Z,0.00
2022-10-04T00:59:21.345Z,0.00
2022-10-04T01:04:21.262Z,0.00
2022-10-04T01:09:21.193Z,0.00
2022-10-04T01:14:21.131Z,0.00
2022-10-04T01:19:21.073Z,0.00
2022-10-04T01:24:20.966Z,0.00
2022-10-04T01:29:20.925Z,0.00
2022-10-04T01:34:20.862Z,0.00
2022-10-04T01:39:20.792Z,0.00
2022-10-04T01:44:20.742Z,0.00
2022-10-04T01:49:20.635Z,0.00
2022-10-04T01:54:20.594Z,0.00
2022-10-04T01:59:20.537Z,0.00
2022-10-04T02:04:22.403Z,0.00
2022-10-04T02:09:20.406Z,0.00
2022-10-04T02:14:20.330Z,0.00
2022-10-04T02:19:20.271Z,0.00
2022-10-04T02:24:20.261Z,0.00
2022-10-04T02:29:20.110Z,0.00
2022-10-04T02:34:20.053Z,0.00
2022-10-04T02:39:20.033Z,0.00
2022-10-04T02:44:19.955Z,0.00
2022-10-04T02:49:19.846Z,0.00
2022-10-04T02:54:19.783Z,0.00
2022-10-04T02:59:19.726Z,0.00
2022-10-04T03:04:19.642Z,0.00
2022-10-04T03:09:19.615Z,0.00
2022-10-04T03:14:19.513Z,0.00
2022-10-04T03:19:19.461Z,0.00
2022-10-04T03:24:19.358Z,0.00
2022-10-04T03:29:19.318Z,0.00
2022-10-04T03:34:19.249Z,0.00
2022-10-04T03:39:19.197Z,0.00
2022-10-04T03:44:19.108Z,0.00
2022-10-04T03:49:19.038Z,0.00
2022-10-04T03:54:18.969Z,0.00
2022-10-04T03:59:18.923Z,0.00
2022-10-04T04:04:18.870Z,0.00
2022-10-04T04:09:18.772Z,0.00
2022-10-04T04:14:18.734Z,0.00
2022-10-04T04:19:33.618Z,0.00
2022-10-04T04:24:28.421Z,0.00
2022-10-04T04:29:26.633Z,0.00
2022-10-04T04:34:26.391Z,0.00
2022-10-04T04:39:26.333Z,0.00
2022-10-04T04:44:26.256Z,0.00
2022-10-04T04:49:26.196Z,0.00
2022-10-04T04:54:26.235Z,0.00
2022-10-04T04:59:26.044Z,0.00
2022-10-04T05:04:25.984Z,0.00
2022-10-04T05:09:25.928Z,0.00
2022-10-04T05:14:25.847Z,0.00
2022-10-04T05:19:25.797Z,0.00
2022-10-04T05:24:25.750Z,0.00
2022-10-04T05:29:25.635Z,0.00
2022-10-04T05:34:25.620Z,0.00
2022-10-04T05:39:25.589Z,0.00
2022-10-04T05:44:25.451Z,0.00
2022-10-04T05:49:25.383Z,0.00
2022-10-04T05:54:25.311Z,0.00
2022-10-04T05:59:25.243Z,0.00
2022-10-04T06:04:25.193Z,0.00
2022-10-04T06:09:25.103Z,5.62
2022-10-04T06:14:25.074Z,5.62
2022-10-04T06:19:24.973Z,5.62
2022-10-04T06:24:26.929Z,5.62
2022-10-04T06:29:24.877Z,5.62
2022-10-04T06:34:24.785Z,11.25
2022-10-04T06:39:24.702Z,11.25
2022-10-04T06:44:24.669Z,11.25
2022-10-04T06:49:24.578Z,11.25
2022-10-04T06:54:24.501Z,16.88
2022-10-04T06:59:24.437Z,16.88
2022-10-04T07:04:24.379Z,22.50
2022-10-04T07:09:24.309Z,16.88
2022-10-04T07:14:24.239Z,16.88
2022-10-04T07:19:24.192Z,16.88
2022-10-04T07:24:24.103Z,16.88
2022-10-04T07:29:24.049Z,16.88
2022-10-04T07:34:23.984Z,22.50
2022-10-04T07:39:23.920Z,33.75
2022-10-04T07:44:23.822Z,33.75
2022-10-04T07:49:23.775Z,45.00
2022-10-04T07:54:23.741Z,50.62
2022-10-04T07:59:23.711Z,50.62
2022-10-04T08:04:23.586Z,50.62
2022-10-04T08:09:23.518Z,56.25
2022-10-04T08:14:23.442Z,78.75
2022-10-04T08:19:23.381Z,73.12
2022-10-04T08:24:23.298Z,67.50
2022-10-04T08:29:23.245Z,67.50
2022-10-04T08:34:23.169Z,95.62
2022-10-04T08:39:23.097Z,129.38
2022-10-04T08:44:23.045Z,163.12
2022-10-04T08:49:23.046Z,196.88
2022-10-04T08:54:22.999Z,196.88
2022-10-04T08:59:22.834Z,151.88
2022-10-04T09:04:22.949Z,135.00
2022-10-04T09:09:22.723Z,123.75
2022-10-04T09:14:22.616Z,163.12
2022-10-04T09:19:22.582Z,174.38
2022-10-04T09:24:22.599Z,180.00
2022-10-04T09:29:22.446Z,241.88
2022-10-04T09:34:22.354Z,275.62
2022-10-04T09:39:30.979Z,241.88
2022-10-04T09:44:23.234Z,365.62
2022-10-04T09:49:22.173Z,326.25
2022-10-04T09:54:22.097Z,675.00
2022-10-04T09:59:22.006Z,888.75
2022-10-04T10:04:21.955Z,804.38
2022-10-04T10:09:21.873Z,871.88
2022-10-04T10:14:21.976Z,1096.88
2022-10-04T10:19:25.016Z,708.75
2022-10-04T10:24:22.676Z,675.00
2022-10-04T10:29:21.614Z,1141.88
2022-10-04T10:34:21.541Z,967.50
2022-10-04T10:39:21.473Z,894.38
2022-10-04T10:44:21.409Z,967.50
2022-10-04T10:49:22.337Z,911.25
2022-10-04T10:54:21.271Z,883.12
2022-10-04T10:59:21.224Z,748.12
2022-10-04T11:04:21.171Z,798.75
2022-10-04T11:09:21.088Z,354.38
2022-10-04T11:14:21.029Z,450.00
2022-10-04T11:19:20.949Z,1096.88
2022-10-04T11:24:20.882Z,1063.12
2022-10-04T11:29:20.823Z,562.50
2022-10-04T11:34:20.764Z,405.00
2022-10-04T11:39:20.691Z,225.00
2022-10-04T11:44:20.651Z,793.12
2022-10-04T11:49:20.570Z,663.75
2022-10-04T11:54:20.536Z,686.25
2022-10-04T11:59:20.421Z,686.25
2022-10-04T12:04:20.383Z,641.25
2022-10-04T12:09:20.297Z,551.25
2022-10-04T12:14:20.220Z,427.50
2022-10-04T12:19:20.167Z,275.62
2022-10-04T12:24:20.099Z,286.88
2022-10-04T12:29:20.018Z,298.12
2022-10-04T12:34:19.962Z,180.00
2022-10-04T12:39:19.893Z,135.00
2022-10-04T12:44:19.839Z,90.00
2022-10-04T12:49:19.734Z,84.38
2022-10-04T12:54:19.693Z,84.38
2022-10-04T12:59:19.617Z,78.75
2022-10-04T13:04:19.546Z,73.12
2022-10-04T13:09:19.479Z,67.50
2022-10-04T13:14:19.435Z,67.50
2022-10-04T13:19:19.358Z,73.12
2022-10-04T13:24:19.286Z,73.12
2022-10-04T13:29:19.208Z,95.62
2022-10-04T13:34:19.146Z,95.62
2022-10-04T13:39:19.088Z,84.38
2022-10-04T13:44:18.991Z,95.62
2022-10-04T13:49:18.930Z,90.00
2022-10-04T13:54:18.882Z,84.38
2022-10-04T13:59:18.806Z,78.75
2022-10-04T14:04:18.734Z,67.50
2022-10-04T14:09:18.669Z,67.50
2022-10-04T14:14:18.624Z,67.50
2022-10-04T14:19:18.509Z,61.88
2022-10-04T14:24:18.471Z,61.88
2022-10-04T14:29:18.405Z,56.25
2022-10-04T14:34:18.325Z,56.25
2022-10-04T14:39:18.284Z,50.62
2022-10-04T14:44:18.201Z,45.00
2022-10-04T14:49:18.147Z,45.00
2022-10-04T14:54:18.063Z,45.00
2022-10-04T14:59:18.065Z,39.38
2022-10-04T15:04:17.987Z,39.38
2022-10-04T15:09:17.833Z,39.38
2022-10-04T15:14:17.803Z,33.75
2022-10-04T15:19:17.725Z,33.75
2022-10-04T15:24:17.659Z,28.12
2022-10-04T15:29:17.588Z,28.12
2022-10-04T15:34:17.532Z,28.12
2022-10-04T15:39:19.305Z,22.50
2022-10-04T15:44:17.394Z,22.50
2022-10-04T15:49:17.319Z,16.88
2022-10-04T15:54:17.240Z,16.88
2022-10-04T15:59:17.190Z,16.88
2022-10-04T16:04:17.130Z,11.25
2022-10-04T16:09:17.079Z,11.25
2022-10-04T16:14:16.989Z,11.25
2022-10-04T16:19:16.911Z,11.25
2022-10-04T16:24:16.823Z,11.25
2022-10-04T16:29:17.187Z,11.25
2022-10-04T16:34:16.858Z,5.62
2022-10-04T16:39:16.636Z,5.62
2022-10-04T16:44:18.387Z,0.00
2022-10-04T16:49:16.506Z,0.00
2022-10-04T16:54:16.431Z,0.00
2022-10-04T16:59:16.406Z,0.00
2022-10-04T17:04:16.339Z,0.00
2022-10-04T17:09:17.785Z,0.00
2022-10-04T17:14:16.175Z,0.00
2022-10-04T17:19:16.114Z,0.00
2022-10-04T17:24:16.025Z,0.00
2022-10-04T17:29:15.962Z,0.00
2022-10-04T17:34:15.897Z,0.00
2022-10-04T17:39:15.821Z,0.00
2022-10-04T17:44:15.741Z,0.00
2022-10-04T17:49:15.699Z,0.00
2022-10-04T17:54:15.634Z,0.00
2022-10-04T17:59:15.564Z,0.00
2022-10-04T18:04:15.484Z,0.00
2022-10-04T18:09:19.383Z,0.00
2022-10-04T18:14:15.365Z,0.00
2022-10-04T18:19:15.291Z,0.00
2022-10-04T18:24:15.225Z,0.00
2022-10-04T18:29:15.173Z,0.00
2022-10-04T18:34:15.062Z,0.00
2022-10-04T18:39:15.010Z,0.00
2022-10-04T18:44:14.933Z,0.00
2022-10-04T18:49:14.919Z,0.00
2022-10-04T18:54:14.806Z,0.00
2022-10-04T18:59:14.801Z,0.00
2022-10-04T19:04:14.690Z,0.00
2022-10-04T19:09:14.612Z,0.00
2022-10-04T19:14:14.549Z,0.00
2022-10-04T19:19:14.461Z,0.00
2022-10-04T19:24:14.416Z,0.00
2022-10-04T19:29:14.351Z,0.00
2022-10-04T19:34:14.335Z,0.00
2022-10-04T19:39:14.251Z,0.00
2022-10-04T19:44:14.153Z,0.00
2022-10-04T19:49:14.086Z,0.00
2022-10-04T19:54:15.845Z,0.00
2022-10-04T19:59:13.956Z,0.00
2022-10-04T20:04:13.890Z,0.00
2022-10-04T20:09:13.822Z,0.00
2022-10-04T20:14:15.589Z,0.00
2022-10-04T20:19:13.702Z,0.00
2022-10-04T20:24:13.570Z,0.00
2022-10-04T20:29:13.544Z,0.00
2022-10-04T20:34:13.442Z,0.00
2022-10-04T20:39:13.403Z,0.00
2022-10-04T20:44:13.337Z,0.00
2022-10-04T20:49:13.254Z,0.00
2022-10-04T20:54:13.217Z,0.00
2022-10-04T20:59:13.129Z,0.00
2022-10-04T21:04:13.053Z,0.00
2022-10-04T21:09:12.989Z,0.00
2022-10-04T21:14:12.930Z,0.00
2022-10-04T21:19:12.865Z,0.00
2022-10-04T21:24:12.814Z,0.00
2022-10-04T21:29:12.702Z,0.00
2022-10-04T21:34:20.322Z,0.00
2022-10-04T21:39:13.603Z,0.00
2022-10-04T21:44:12.534Z,0.00
2022-10-04T21:49:12.475Z,0.00
2022-10-04T21:54:12.383Z,0.00
2022-10-04T21:59:12.305Z,0.00
2022-10-04T22:04:12.243Z,0.00
2022-10-04T22:09:13.119Z,0.00
2022-10-04T22:14:12.138Z,0.00
2022-10-04T22:19:12.059Z,0.00
2022-10-04T22:24:11.981Z,0.00
2022-10-04T22:29:11.893Z,0.00
2022-10-04T22:34:11.842Z,0.00
2022-10-04T22:39:11.752Z,0.00
2022-10-04T22:44:11.706Z,0.00
2022-10-04T22:49:11.656Z,0.00
2022-10-04T22:54:11.589Z,0.00
2022-10-04T22:59:11.515Z,0.00
2022-10-04T23:04:11.457Z,0.00
2022-10-04T23:09:11.379Z,0.00
2022-10-04T23:14:11.306Z,0.00
2022-10-04T23:19:11.259Z,0.00
2022-10-04T23:24:11.191Z,0.00
2022-10-04T23:29:11.132Z,0.00
2022-10-04T23:34:11.036Z,0.00
2022-10-04T23:39:10.990Z,0.00
2022-10-04T23:44:10.883Z,0.00
2022-10-04T23:49:10.837Z,0.00
2022-10-04T23:54:10.765Z,0.00
2022-10-04T23:59:10.747Z,0.00
